createdAt,value
2019-02-19T00:01:01.589Z,99888.23
2019-02-19T00:04:06.855Z,99883.56
2019-02-19T00:07:12.076Z,99887.89
2019-02-19T00:10:17.301Z,99885.84
2019-02-19T00:13:22.460Z,99886.48
2019-02-19T00:16:27.663Z,99886.42
2019-02-19T00:19:32.840Z,99884.67
2019-02-19T00:22:38.027Z,99887.19
2019-02-19T00:25:43.106Z,99889.06
2019-02-19T00:28:48.231Z,99884.80
2019-02-19T00:31:53.425Z,99885.44
2019-02-19T00:34:58.628Z,99888.70
2019-02-19T00:38:03.814Z,99881.28
2019-02-19T00:41:08.961Z,99876.37
2019-02-19T00:44:14.111Z,99874.16
2019-02-19T00:47:19.287Z,99876.59
2019-02-19T00:50:24.603Z,99882.21
2019-02-19T00:53:29.773Z,99878.80
2019-02-19T00:56:34.960Z,99892.84
2019-02-19T00:59:40.124Z,99892.25
2019-02-19T01:02:45.350Z,99883.99
2019-02-19T01:05:50.538Z,99886.52
2019-02-19T01:08:55.659Z,99891.24
2019-02-19T01:12:00.773Z,99885.70
2019-02-19T01:15:07.656Z,99889.33
2019-02-19T01:18:12.858Z,99892.03
2019-02-19T01:21:18.002Z,99892.34
2019-02-19T01:24:23.166Z,99892.02
2019-02-19T01:27:28.361Z,99895.80
2019-02-19T01:30:33.545Z,99888.42
2019-02-19T01:33:38.654Z,99884.58
2019-02-19T01:36:43.819Z,99881.56
2019-02-19T01:39:49.133Z,99880.73
2019-02-19T01:42:54.401Z,99878.78
2019-02-19T01:45:59.538Z,99883.45
2019-02-19T01:49:04.644Z,99887.91
2019-02-19T01:52:10.006Z,99883.78
2019-02-19T01:55:15.164Z,99879.03
2019-02-19T01:58:20.317Z,99878.70
2019-02-19T02:01:25.433Z,99870.10
2019-02-19T02:04:30.555Z,99864.19
2019-02-19T02:07:35.665Z,99869.81
2019-02-19T02:10:40.877Z,99867.66
2019-02-19T02:13:46.009Z,99862.41
2019-02-19T02:16:51.215Z,99870.13
2019-02-19T02:19:56.368Z,99863.00
2019-02-19T02:23:01.570Z,99861.69
2019-02-19T02:26:06.757Z,99861.20
2019-02-19T02:29:11.956Z,99867.15
2019-02-19T02:32:17.161Z,99870.55
2019-02-19T02:35:22.355Z,99864.20
2019-02-19T02:38:27.516Z,99860.12
2019-02-19T02:41:32.690Z,99857.98
2019-02-19T02:44:37.854Z,99853.55
2019-02-19T02:47:42.990Z,99853.75
2019-02-19T02:50:48.173Z,99846.69
2019-02-19T02:53:53.452Z,99850.24
2019-02-19T02:56:58.594Z,99848.46
2019-02-19T03:00:03.800Z,99845.69
2019-02-19T03:03:09.624Z,99851.27
2019-02-19T03:06:23.634Z,99855.66
2019-02-19T03:09:28.777Z,99848.13
2019-02-19T03:12:33.985Z,99842.63
2019-02-19T03:15:39.162Z,99842.70
2019-02-19T03:18:44.371Z,99839.07
2019-02-19T03:21:49.504Z,99836.22
2019-02-19T03:24:54.697Z,99841.52
2019-02-19T03:27:59.851Z,99842.00
2019-02-19T03:31:05.093Z,99842.75
2019-02-19T03:34:10.255Z,99853.18
2019-02-19T03:37:15.394Z,99862.06
2019-02-19T03:40:20.503Z,99854.95
2019-02-19T03:43:25.781Z,99861.72
2019-02-19T03:46:30.944Z,99858.32
2019-02-19T03:49:36.106Z,99856.55
2019-02-19T03:52:41.270Z,99860.81
2019-02-19T03:55:46.421Z,99866.52
2019-02-19T03:58:51.620Z,99868.05
2019-02-19T04:01:56.825Z,99864.87
2019-02-19T04:05:01.981Z,99861.31
2019-02-19T04:08:07.281Z,99864.43
2019-02-19T04:11:12.382Z,99864.73
2019-02-19T04:14:17.524Z,99867.70
2019-02-19T04:17:22.725Z,99872.03
2019-02-19T04:20:28.011Z,99870.42
2019-02-19T04:23:33.158Z,99872.98
2019-02-19T04:26:38.559Z,99868.73
2019-02-19T04:29:43.762Z,99865.83
2019-02-19T04:32:48.980Z,99866.59
2019-02-19T04:35:54.099Z,99873.13
2019-02-19T04:38:59.462Z,99875.72
2019-02-19T04:42:04.569Z,99878.34
2019-02-19T04:45:09.887Z,99879.27
2019-02-19T04:48:15.074Z,99883.52
2019-02-19T04:51:20.253Z,99893.05
2019-02-19T04:54:25.456Z,99886.58
2019-02-19T04:57:30.635Z,99877.66
2019-02-19T05:00:35.797Z,99881.15
2019-02-19T05:03:40.980Z,99879.06
2019-02-19T05:06:46.166Z,99877.45
2019-02-19T05:09:51.309Z,99874.53
2019-02-19T05:12:56.482Z,99885.03
2019-02-19T05:16:01.634Z,99887.06
2019-02-19T05:19:07.872Z,99885.67
2019-02-19T05:22:13.056Z,99890.04
2019-02-19T05:25:18.202Z,99890.82
2019-02-19T05:28:23.384Z,99893.86
2019-02-19T05:31:28.525Z,99892.30
2019-02-19T05:34:33.704Z,99894.70
2019-02-19T05:37:38.869Z,99889.50
2019-02-19T05:40:44.019Z,99892.36
2019-02-19T05:43:49.148Z,99887.53
2019-02-19T05:46:54.271Z,99885.67
2019-02-19T05:49:59.453Z,99886.35
2019-02-19T05:53:04.738Z,99880.39
2019-02-19T05:56:09.881Z,99881.13
2019-02-19T05:59:15.078Z,99886.20
2019-02-19T06:02:20.336Z,99886.97
2019-02-19T06:05:25.469Z,99888.27
2019-02-19T06:08:30.644Z,99896.57
2019-02-19T06:11:35.816Z,99885.87
2019-02-19T06:14:41.205Z,99891.03
2019-02-19T06:17:46.419Z,99899.43
2019-02-19T06:20:51.619Z,99893.19
2019-02-19T06:23:56.720Z,99899.36
2019-02-19T06:27:01.921Z,99898.11
2019-02-19T06:30:10.915Z,99905.55
2019-02-19T06:33:16.000Z,99906.91
2019-02-19T06:36:21.124Z,99910.80
2019-02-19T06:39:26.290Z,99920.73
2019-02-19T06:42:31.445Z,99923.33
2019-02-19T06:45:36.629Z,99923.88
2019-02-19T06:48:41.791Z,99923.27
2019-02-19T06:51:46.987Z,99929.88
2019-02-19T06:54:52.161Z,99938.45
2019-02-19T06:57:57.381Z,99926.90
2019-02-19T07:01:02.501Z,99929.95
2019-02-19T07:04:14.422Z,99937.75
2019-02-19T07:07:20.900Z,99943.25
2019-02-19T07:10:26.306Z,99950.14
2019-02-19T07:13:31.656Z,99950.92
2019-02-19T07:16:36.781Z,99946.04
2019-02-19T07:19:41.930Z,99953.17
2019-02-19T07:22:47.081Z,99951.84
2019-02-19T07:25:52.266Z,99952.81
2019-02-19T07:28:57.443Z,99955.34
2019-02-19T07:32:02.578Z,99958.75
2019-02-19T07:35:07.814Z,99958.89
2019-02-19T07:38:12.912Z,99955.23
2019-02-19T07:41:18.091Z,99959.66
2019-02-19T07:44:23.235Z,99963.67
2019-02-19T07:47:28.412Z,99972.31
2019-02-19T07:50:33.691Z,99967.36
2019-02-19T07:53:38.826Z,99979.32
2019-02-19T07:56:44.185Z,99985.12
2019-02-19T07:59:49.353Z,99974.44
2019-02-19T08:02:54.496Z,99970.80
2019-02-19T08:05:59.635Z,99976.59
2019-02-19T08:09:06.652Z,99969.67
2019-02-19T08:12:12.066Z,99973.23
2019-02-19T08:15:17.186Z,99972.27
2019-02-19T08:18:22.416Z,99973.47
2019-02-19T08:21:27.602Z,99974.84
2019-02-19T08:24:32.776Z,99977.87
2019-02-19T08:27:37.905Z,99988.23
2019-02-19T08:30:43.031Z,99996.09
2019-02-19T08:33:48.212Z,99997.25
2019-02-19T08:36:53.356Z,99992.13
2019-02-19T08:39:58.534Z,99996.47
2019-02-19T08:43:04.005Z,100007.48
2019-02-19T08:46:09.142Z,100007.88
2019-02-19T08:49:14.400Z,100004.17
2019-02-19T08:52:19.585Z,100009.08
2019-02-19T08:55:24.800Z,100016.19
2019-02-19T08:58:30.086Z,100018.59
2019-02-19T09:01:35.251Z,100016.52
2019-02-19T09:04:40.390Z,100015.16
2019-02-19T09:07:45.577Z,100012.91
2019-02-19T09:10:50.860Z,100022.27
2019-02-19T09:13:56.033Z,100021.34
2019-02-19T09:17:01.179Z,100026.85
2019-02-19T09:20:07.137Z,100026.80
2019-02-19T09:23:12.342Z,100027.69
2019-02-19T09:26:17.542Z,100027.94
2019-02-19T09:29:22.710Z,100027.80
2019-02-19T09:32:27.859Z,100033.37
2019-02-19T09:35:32.982Z,100041.86
2019-02-19T09:38:38.237Z,100045.53
2019-02-19T09:41:43.384Z,100048.92
2019-02-19T09:44:48.542Z,100051.77
2019-02-19T09:48:01.044Z,100057.81
2019-02-19T09:51:00.655Z,100064.16
2019-02-19T09:54:05.763Z,100063.75
2019-02-19T09:57:10.946Z,100066.59
2019-02-19T10:00:16.220Z,100061.39
2019-02-19T10:03:21.468Z,100058.84
2019-02-19T10:06:30.272Z,100061.41
2019-02-19T10:09:37.036Z,100058.09
2019-02-19T10:12:42.232Z,100049.14
2019-02-19T10:15:47.400Z,100061.96
2019-02-19T10:18:52.481Z,100058.77
2019-02-19T10:21:57.644Z,100055.08
2019-02-19T10:25:02.800Z,100060.95
2019-02-19T10:28:07.993Z,100073.00
2019-02-19T10:31:13.136Z,100075.27
2019-02-19T10:34:18.259Z,100074.31
2019-02-19T10:37:23.472Z,100065.61
2019-02-19T10:40:28.692Z,100077.68
2019-02-19T10:43:33.843Z,100080.64
2019-02-19T10:46:39.031Z,100074.35
2019-02-19T10:49:44.314Z,100077.52
2019-02-19T10:52:49.467Z,100079.33
2019-02-19T10:55:55.688Z,100087.36
2019-02-19T10:59:00.845Z,100087.68
2019-02-19T11:02:05.985Z,100089.69
2019-02-19T11:05:11.169Z,100074.72
2019-02-19T11:08:16.293Z,100082.38
2019-02-19T11:11:21.460Z,100076.41
2019-02-19T11:14:26.596Z,100072.07
2019-02-19T11:17:31.762Z,100071.26
2019-02-19T11:20:36.920Z,100071.72
2019-02-19T11:23:42.098Z,100070.04
2019-02-19T11:26:47.434Z,100073.05
2019-02-19T11:29:52.575Z,100074.88
2019-02-19T11:32:57.761Z,100062.00
2019-02-19T11:36:02.981Z,100062.66
2019-02-19T11:39:12.014Z,100064.98
2019-02-19T11:42:17.180Z,100063.30
2019-02-19T11:45:22.340Z,100064.23
2019-02-19T11:48:27.514Z,100061.81
2019-02-19T11:51:32.677Z,100051.40
2019-02-19T11:54:37.896Z,100044.57
2019-02-19T11:57:43.042Z,100057.41
2019-02-19T12:00:48.201Z,100053.53
2019-02-19T12:03:54.592Z,100053.47
2019-02-19T12:06:59.738Z,100052.16
2019-02-19T12:10:05.005Z,100054.37
2019-02-19T12:13:10.206Z,100054.00
2019-02-19T12:16:15.451Z,100054.66
2019-02-19T12:19:20.589Z,100057.22
2019-02-19T12:22:25.765Z,100055.97
2019-02-19T12:25:30.896Z,100049.22
2019-02-19T12:28:36.141Z,100051.86
2019-02-19T12:31:41.316Z,100038.23
2019-02-19T12:34:48.443Z,100031.91
2019-02-19T12:37:55.263Z,100027.03
2019-02-19T12:41:00.449Z,100028.37
2019-02-19T12:44:05.600Z,100026.09
2019-02-19T12:47:10.717Z,100024.88
2019-02-19T12:50:15.928Z,100029.03
2019-02-19T12:53:21.101Z,100027.97
2019-02-19T12:56:26.225Z,100017.20
2019-02-19T12:59:31.721Z,100009.07
2019-02-19T13:02:36.812Z,100006.74
2019-02-19T13:05:42.089Z,100008.25
2019-02-19T13:08:47.139Z,99996.14
2019-02-19T13:11:52.353Z,100002.70
2019-02-19T13:14:57.572Z,100003.45
2019-02-19T13:18:02.774Z,100004.94
2019-02-19T13:21:07.898Z,100001.77
2019-02-19T13:24:13.111Z,100008.21
2019-02-19T13:27:18.221Z,100004.82
2019-02-19T13:30:23.376Z,100009.56
2019-02-19T13:33:28.547Z,100012.68
2019-02-19T13:36:33.660Z,100009.23
2019-02-19T13:39:38.809Z,100010.47
2019-02-19T13:42:43.924Z,100005.30
2019-02-19T13:45:49.183Z,100007.48
2019-02-19T13:48:54.353Z,100001.46
2019-02-19T13:52:05.472Z,100006.84
2019-02-19T13:55:17.597Z,100007.38
2019-02-19T13:58:22.747Z,100000.81
2019-02-19T14:01:27.934Z,100003.37
2019-02-19T14:04:33.093Z,100005.37
2019-02-19T14:07:38.211Z,99988.95
2019-02-19T14:10:43.403Z,100006.17
2019-02-19T14:14:10.300Z,99992.58
2019-02-19T14:17:17.785Z,99992.66
2019-02-19T14:20:41.886Z,99995.98
2019-02-19T14:24:04.847Z,99991.20
2019-02-19T14:27:34.839Z,99996.71
2019-02-19T14:31:14.482Z,100001.03
2019-02-19T14:34:47.131Z,99998.18
2019-02-19T14:38:09.990Z,99997.63
2019-02-19T14:41:34.701Z,99998.11
2019-02-19T14:44:58.859Z,99998.77
2019-02-19T14:48:23.102Z,100005.50
2019-02-19T14:51:45.396Z,100000.94
2019-02-19T14:55:01.808Z,100004.16
2019-02-19T14:58:24.505Z,100008.00
2019-02-19T15:01:47.506Z,100009.66
2019-02-19T15:05:06.875Z,100003.84
2019-02-19T15:08:34.052Z,100006.45
2019-02-19T15:11:58.210Z,100004.28
2019-02-19T15:15:22.279Z,100011.28
2019-02-19T15:18:48.367Z,100010.44
2019-02-19T15:22:15.525Z,100007.41
2019-02-19T15:25:42.445Z,100005.12
2019-02-19T15:29:01.715Z,100003.25
2019-02-19T15:32:25.862Z,100007.36
2019-02-19T15:35:41.969Z,100005.22
2019-02-19T15:39:24.327Z,100000.63
2019-02-19T15:42:47.045Z,100005.66
2019-02-19T15:46:11.211Z,100005.20
2019-02-19T15:49:47.584Z,100007.73
2019-02-19T15:53:07.194Z,100010.03
2019-02-19T15:56:24.726Z,100007.22
2019-02-19T15:59:46.600Z,100006.61
2019-02-19T16:03:11.733Z,100005.31
2019-02-19T16:06:23.497Z,100007.81
2019-02-19T16:09:53.397Z,100013.80
2019-02-19T16:13:26.795Z,100010.02
2019-02-19T16:17:00.820Z,99996.81
2019-02-19T16:20:32.330Z,100008.12
2019-02-19T16:24:01.014Z,100010.11
2019-02-19T16:27:26.393Z,100010.55
2019-02-19T16:31:05.922Z,100017.16
2019-02-19T16:34:19.994Z,100011.97
2019-02-19T16:37:47.842Z,100016.53
2019-02-19T16:41:09.501Z,100016.52
2019-02-19T16:44:46.012Z,100024.56
2019-02-19T16:48:09.086Z,100022.39
2019-02-19T16:51:45.443Z,100026.42
2019-02-19T16:55:27.843Z,100028.41
2019-02-19T16:58:50.624Z,100036.11
2019-02-19T17:02:10.577Z,100043.27
2019-02-19T17:05:28.296Z,100047.67
2019-02-19T17:08:50.547Z,100043.34
2019-02-19T17:12:09.047Z,100045.34
2019-02-19T17:15:32.294Z,100046.53
2019-02-19T17:18:53.379Z,100043.87
2019-02-19T17:22:23.520Z,100047.06
2019-02-19T17:25:40.101Z,100052.91
2019-02-19T17:29:01.035Z,100051.57
2019-02-19T17:32:34.206Z,100056.23
2019-02-19T17:35:49.995Z,100068.72
2019-02-19T17:39:03.951Z,100074.39
2019-02-19T17:42:29.117Z,100074.52
2019-02-19T17:45:52.198Z,100081.22
2019-02-19T17:49:19.497Z,100081.01
2019-02-19T17:52:36.646Z,100084.66
2019-02-19T17:55:58.416Z,100081.63
2019-02-19T17:59:15.077Z,100086.92
2019-02-19T18:02:30.016Z,100092.91
2019-02-19T18:06:05.982Z,100095.50
2019-02-19T18:09:18.628Z,100090.68
2019-02-19T18:12:38.290Z,100103.36
2019-02-19T18:16:01.486Z,100101.11
2019-02-19T18:19:06.736Z,100107.19
2019-02-19T18:22:12.071Z,100105.56
2019-02-19T18:25:17.307Z,100114.14
2019-02-19T18:28:22.464Z,100115.20
2019-02-19T18:31:27.683Z,100118.87
2019-02-19T18:34:32.984Z,100118.91
2019-02-19T18:37:38.209Z,100128.55
2019-02-19T18:40:43.320Z,100119.47
2019-02-19T18:43:48.584Z,100128.24
2019-02-19T18:46:53.813Z,100123.11
2019-02-19T18:49:59.051Z,100121.14
2019-02-19T18:53:04.194Z,100125.26
2019-02-19T18:56:09.423Z,100134.66
2019-02-19T18:59:14.622Z,100129.55
2019-02-19T19:02:19.809Z,100138.69
2019-02-19T19:05:25.025Z,100144.31
2019-02-19T19:08:30.716Z,100147.74
2019-02-19T19:11:35.910Z,100143.95
2019-02-19T19:14:41.079Z,100147.72
2019-02-19T19:17:46.339Z,100147.54
2019-02-19T19:20:51.610Z,100152.06
2019-02-19T19:23:56.754Z,100157.54
2019-02-19T19:27:01.927Z,100157.17
2019-02-19T19:30:08.219Z,100158.00
2019-02-19T19:33:13.462Z,100162.33
2019-02-19T19:36:18.609Z,100171.42
2019-02-19T19:39:23.786Z,100165.25
2019-02-19T19:42:28.935Z,100173.73
2019-02-19T19:45:34.213Z,100172.97
2019-02-19T19:48:39.401Z,100169.03
2019-02-19T19:51:44.636Z,100175.70
2019-02-19T19:54:49.890Z,100171.94
2019-02-19T19:57:55.056Z,100174.99
2019-02-19T20:01:00.804Z,100171.02
2019-02-19T20:04:06.726Z,100175.26
2019-02-19T20:07:11.937Z,100176.54
2019-02-19T20:10:17.152Z,100185.83
2019-02-19T20:13:22.330Z,100181.69
2019-02-19T20:16:27.526Z,100181.27
2019-02-19T20:19:32.709Z,100190.43
2019-02-19T20:22:37.847Z,100198.41
2019-02-19T20:25:43.114Z,100197.50
2019-02-19T20:28:48.430Z,100203.20
2019-02-19T20:31:53.724Z,100201.19
2019-02-19T20:34:58.936Z,100202.44
2019-02-19T20:38:04.210Z,100205.04
2019-02-19T20:41:09.561Z,100209.20
2019-02-19T20:44:14.815Z,100212.15
2019-02-19T20:47:20.042Z,100212.98
2019-02-19T20:50:25.211Z,100209.97
2019-02-19T20:53:30.429Z,100209.75
2019-02-19T20:56:35.671Z,100210.95
2019-02-19T20:59:40.958Z,100206.75
2019-02-19T21:02:46.247Z,100208.03
2019-02-19T21:05:51.546Z,100217.02
2019-02-19T21:08:56.995Z,100215.56
2019-02-19T21:12:02.245Z,100220.37
2019-02-19T21:15:07.606Z,100217.73
2019-02-19T21:18:13.697Z,100220.37
2019-02-19T21:21:19.100Z,100227.02
2019-02-19T21:24:24.470Z,100226.05
2019-02-19T21:27:29.889Z,100227.77
2019-02-19T21:30:35.342Z,100236.28
2019-02-19T21:33:40.566Z,100236.14
2019-02-19T21:36:45.818Z,100244.77
2019-02-19T21:39:51.100Z,100256.21
2019-02-19T21:42:56.339Z,100250.58
2019-02-19T21:46:02.793Z,100250.46
2019-02-19T21:49:08.097Z,100248.30
2019-02-19T21:52:13.375Z,100246.64
2019-02-19T21:55:18.753Z,100250.02
2019-02-19T21:58:24.071Z,100248.69
2019-02-19T22:01:29.566Z,100253.30
2019-02-19T22:04:34.894Z,100246.71
2019-02-19T22:07:40.227Z,100240.85
2019-02-19T22:10:45.903Z,100242.49
2019-02-19T22:13:51.296Z,100254.41
2019-02-19T22:16:56.549Z,100250.78
2019-02-19T22:20:03.692Z,100251.12
2019-02-19T22:23:10.737Z,100254.39
2019-02-19T22:26:17.113Z,100253.56
2019-02-19T22:29:22.486Z,100258.28
2019-02-19T22:32:27.705Z,100256.81
2019-02-19T22:35:32.955Z,100254.39
2019-02-19T22:38:38.342Z,100261.84
2019-02-19T22:41:43.504Z,100253.87
2019-02-19T22:44:51.466Z,100260.41
2019-02-19T22:47:56.664Z,100256.70
2019-02-19T22:51:01.845Z,100259.95
2019-02-19T22:54:11.116Z,100264.22
2019-02-19T22:57:17.216Z,100266.30
2019-02-19T23:00:45.815Z,100270.27
2019-02-19T23:03:52.667Z,100270.05
2019-02-19T23:06:57.825Z,100272.97
2019-02-19T23:10:03.069Z,100273.64
2019-02-19T23:13:08.562Z,100267.69
2019-02-19T23:16:13.867Z,100278.30
2019-02-19T23:19:19.068Z,100287.19
2019-02-19T23:22:24.243Z,100280.77
2019-02-19T23:25:29.433Z,100279.85
2019-02-19T23:28:34.670Z,100292.33
2019-02-19T23:31:41.054Z,100291.95
2019-02-19T23:34:47.857Z,100288.19
2019-02-19T23:37:53.077Z,100291.95
2019-02-19T23:40:59.307Z,100288.77
2019-02-19T23:44:04.498Z,100293.88
2019-02-19T23:47:09.703Z,100294.25
2019-02-19T23:50:14.840Z,100292.50
2019-02-19T23:53:20.204Z,100286.98
2019-02-19T23:56:25.297Z,100293.28
2019-02-19T23:59:30.607Z,100290.23
